Gustavus, AK

9:26 AM AKDT on July 28, 2014 (GMT -0800)
Elfin Cove (PAEL) Elev 0 ft | 58.20 °N, 136.35 °W | Change Station

Current weather conditions updated 34 minutes ago

Light Rain
Light Rain
54 °F
Feels Like 54 °F
N
0
Wind Variable Wind from North

Today is forecast to be Much Cooler than yesterday. Cloudy, periods of rain.

Today
High -- | Low -- °F
--% Chance of Precip.
Yesterday
High -- | Low -- °F
Precip. -- in
4:47 AM 9:39 PM
Waxing Crescent, 3% visible
Pressure 30.05 in
Visibility 10.0 miles
Clouds Few 1300 ft
Overcast 2200 ft
Dew Point 54 °F
Humidity 100%
Rainfall 0.00 in
Snow Depth Not available.
UV 1 out of 12
Pollen Not available.
Air Quality Not available.
Flu Activity Not available.
METAR PAEL 281652Z 00000KT 10SM -RA FEW013 OVC022 12/12 A3005 RMK MIN 10.8 NOSPECI

More Conditions Fewer Conditions

Pressure 30.05 in
Visibility 10.0 miles
Clouds Few 1300 ft
Overcast 2200 ft
Dew Point 54 °F
Humidity 100%
Rainfall 0.00 in
Snow Depth Not available.
UV 1 out of 12
Pollen Not available.
Air Quality Not available.
Flu Activity Not available.
METAR PAEL 281652Z 00000KT 10SM -RA FEW013 OVC022 12/12 A3005 RMK MIN 10.8 NOSPECI

More Conditions Fewer Conditions

10-Day Weather Forecast

Almanac

Astronomy

Jul. 28, 2014 Rise Set
Actual Time 4:47 AM AKDT 9:39 PM AKDT
Civil Twilight 3:49 AM AKDT 10:37 PM AKDT
Nautical Twilight 1:43 AM AKDT 12:33 AM AKDT
Astronomical Twilight Sun does not rise Sun does not rise
Moon 7:18 AM AKDT 9:36 PM AKDT
Length of Visible Light 18h 48m
Length of Day
16h 51m
Tomorrow will be 4m 21s shorter.
Waxing Crescent, 3% of the Moon is Illuminated
Today
Waxing Crescent
Aug 3
First Quarter
Aug 10
Full
Aug 17
Last Quarter
Aug 25
New

Today's Extremes

State Highs State Lows

Community

WunderPhotos

Upload Photos

1,738,421 photos uploaded!

Nearby

Snow Depth

Station Depth Elevation
Long Lake 0 in 820 ft
Upper Tsaina River 0 in 1750 ft
Moraine 0 in 2100 ft
Grandview 6 in 1100 ft
Grouse Creek Divide 0 in 700 ft

Earthquake Activity

City Distance Mag. Time & Date
No recent earthquake activity has been reported nearby.
Minimum magnitude displayed is 2.5.

Coastal Water Temperatures

Place Temperature
No Stations Reporting

Nearby Weather Stations

Station Location Temp. Dew Point Humidity Wind Precip. Elev Updated Type
MARITIME , Meyers Chuck, AK 55 °F 55 °F 100% South  at  21 mph 0.00 in / hr 0 ft 7:00 AM AKDT MADIS

Show More Stations Show Fewer Stations